createdAt,value
2018-03-08T17:00:39.913Z,0
2018-03-08T17:00:42.762Z,0
2018-03-08T17:00:45.227Z,0
2018-03-08T17:00:47.910Z,0
2018-03-08T17:00:50.927Z,0
2018-03-08T17:00:53.674Z,0
2018-03-08T17:00:56.176Z,0
2018-03-08T17:00:58.924Z,0
2018-03-08T17:01:01.688Z,0
2018-03-08T17:01:05.001Z,0
2018-03-08T17:01:07.633Z,0
2018-03-08T17:01:10.353Z,0
2018-03-08T17:01:13.366Z,0
2018-03-08T17:01:16.180Z,0
2018-03-08T17:01:18.827Z,0
2018-03-08T17:01:21.458Z,0
2018-03-08T17:01:24.005Z,0
2018-03-08T17:01:26.940Z,0
2018-03-08T17:01:30.182Z,0
2018-03-08T17:01:32.900Z,0
2018-03-08T17:01:36.202Z,0
2018-03-08T17:01:38.751Z,0
2018-03-08T17:01:41.423Z,0
2018-03-08T17:01:44.437Z,0
2018-03-08T17:01:47.248Z,0
2018-03-08T17:01:50.177Z,0
2018-03-08T17:01:52.908Z,0
2018-03-08T17:01:55.757Z,0
2018-03-08T17:01:58.773Z,0
2018-03-08T17:02:01.608Z,0
2018-03-08T17:02:04.750Z,0
2018-03-08T17:02:07.766Z,0
2018-03-08T17:02:10.396Z,0
2018-03-08T17:02:12.752Z,0
2018-03-08T17:02:15.395Z,0
2018-03-08T17:02:17.958Z,0
2018-03-08T17:02:20.886Z,0
2018-03-08T17:02:23.730Z,0
2018-03-08T17:02:26.662Z,0
2018-03-08T17:02:29.690Z,0
2018-03-08T17:02:32.624Z,0
2018-03-08T17:02:34.974Z,0
2018-03-08T17:02:37.733Z,0
2018-03-08T17:02:41.042Z,0
2018-03-08T17:02:43.386Z,0
2018-03-08T17:02:46.687Z,0
2018-03-08T17:02:49.313Z,0
2018-03-08T17:02:52.328Z,0
2018-03-08T17:02:55.245Z,0
2018-03-08T17:02:57.991Z,0
2018-03-08T17:03:01.172Z,0
2018-03-08T17:03:03.929Z,0
2018-03-08T17:03:06.587Z,0
2018-03-08T17:03:09.521Z,0
2018-03-08T17:03:12.150Z,0
2018-03-08T17:03:14.577Z,0
2018-03-08T17:03:17.355Z,0
2018-03-08T17:03:20.674Z,0
2018-03-08T17:03:23.619Z,0
2018-03-08T17:03:26.470Z,0
2018-03-08T17:03:29.692Z,0
2018-03-08T17:03:32.124Z,0
2018-03-08T17:03:35.164Z,0
2018-03-08T17:03:37.886Z,0
2018-03-08T17:03:40.902Z,0
2018-03-08T17:03:43.243Z,0
2018-03-08T17:03:46.004Z,0
2018-03-08T17:03:48.180Z,0
2018-03-08T17:03:51.102Z,0
2018-03-08T17:03:53.666Z,0
2018-03-08T17:03:56.297Z,0
2018-03-08T17:03:59.579Z,0
2018-03-08T17:04:01.916Z,0
2018-03-08T17:04:04.937Z,0
2018-03-08T17:04:07.653Z,0
2018-03-08T17:04:10.668Z,0
2018-03-08T17:04:13.599Z,0
2018-03-08T17:04:16.610Z,0
2018-03-08T17:04:19.339Z,0
2018-03-08T17:04:22.056Z,0
2018-03-08T17:04:25.276Z,0
2018-03-08T17:04:27.693Z,0
2018-03-08T17:04:30.585Z,0
2018-03-08T17:04:33.709Z,0
2018-03-08T17:04:36.810Z,0
2018-03-08T17:04:40.009Z,5
2018-03-08T17:04:42.636Z,5
2018-03-08T17:05:01.521Z,5
2018-03-08T17:05:04.861Z,5
2018-03-08T17:05:07.915Z,5
2018-03-08T17:05:11.061Z,0
2018-03-08T17:05:14.112Z,0
2018-03-08T17:05:17.633Z,0
2018-03-08T17:05:20.827Z,0
2018-03-08T17:05:23.888Z,0
2018-03-08T17:05:26.806Z,0
2018-03-08T17:05:29.891Z,0
2018-03-08T17:05:32.630Z,0
2018-03-08T17:05:36.073Z,0
2018-03-08T17:05:38.425Z,0
2018-03-08T17:05:41.203Z,0
2018-03-08T17:05:43.684Z,0
2018-03-08T17:05:46.456Z,0
2018-03-08T17:05:49.910Z,0
2018-03-08T17:05:53.246Z,0
2018-03-08T17:05:56.201Z,0
2018-03-08T17:05:58.555Z,0
2018-03-08T17:06:01.629Z,0
2018-03-08T17:06:04.279Z,0
2018-03-08T17:06:07.248Z,0
2018-03-08T17:06:10.091Z,0
2018-03-08T17:06:13.020Z,0
2018-03-08T17:06:16.236Z,0
2018-03-08T17:06:18.661Z,0
2018-03-08T17:06:21.296Z,0
2018-03-08T17:06:24.231Z,0
2018-03-08T17:06:27.016Z,0
2018-03-08T17:06:29.367Z,0
2018-03-08T17:06:31.999Z,0
2018-03-08T17:06:34.715Z,0
2018-03-08T17:06:37.921Z,0
2018-03-08T17:06:40.838Z,0
2018-03-08T17:06:43.892Z,0
2018-03-08T17:06:46.884Z,0
2018-03-08T17:06:49.621Z,0
2018-03-08T17:06:52.243Z,0
2018-03-08T17:06:55.016Z,0
2018-03-08T17:06:58.177Z,0
2018-03-08T17:07:00.916Z,0
2018-03-08T17:07:04.285Z,0
2018-03-08T17:07:07.093Z,0
2018-03-08T17:07:10.451Z,0
2018-03-08T17:07:13.279Z,0
2018-03-08T17:07:15.622Z,0
2018-03-08T17:07:18.686Z,0
2018-03-08T17:07:21.262Z,0
2018-03-08T17:07:24.228Z,0
2018-03-08T17:07:27.169Z,0
2018-03-08T17:07:29.648Z,0
2018-03-08T17:07:31.907Z,0
2018-03-08T17:07:34.997Z,0
2018-03-08T17:07:37.827Z,0
2018-03-08T17:07:40.898Z,0
2018-03-08T17:07:44.428Z,0
2018-03-08T17:07:47.695Z,0
2018-03-08T17:07:50.675Z,0
2018-03-08T17:07:52.932Z,0
2018-03-08T17:07:55.558Z,0
2018-03-08T17:07:57.990Z,0
2018-03-08T17:08:00.650Z,0
2018-03-08T17:08:03.434Z,0
2018-03-08T17:08:06.442Z,0
2018-03-08T17:08:09.742Z,0
2018-03-08T17:08:12.083Z,0
2018-03-08T17:08:14.913Z,0
2018-03-08T17:08:17.935Z,0
2018-03-08T17:08:20.781Z,0
2018-03-08T17:08:23.714Z,0
2018-03-08T17:08:26.146Z,0
2018-03-08T17:08:29.162Z,0
2018-03-08T17:08:31.804Z,0
2018-03-08T17:08:34.730Z,0
2018-03-08T17:08:37.745Z,0
2018-03-08T17:08:40.676Z,0
2018-03-08T17:08:43.411Z,0
2018-03-08T17:08:46.425Z,0
2018-03-08T17:08:49.162Z,0
2018-03-08T17:08:51.638Z,0
2018-03-08T17:08:54.286Z,0
2018-03-08T17:08:56.994Z,0
2018-03-08T17:09:00.214Z,0
2018-03-08T17:09:02.275Z,0
2018-03-08T17:09:05.112Z,0
2018-03-08T17:09:08.043Z,0
2018-03-08T17:09:10.831Z,0
2018-03-08T17:09:13.758Z,0
2018-03-08T17:09:16.778Z,0
2018-03-08T17:09:20.275Z,0
2018-03-08T17:09:23.500Z,0
2018-03-08T17:09:25.882Z,0
2018-03-08T17:09:28.810Z,0
2018-03-08T17:09:31.832Z,0
2018-03-08T17:09:34.089Z,0
2018-03-08T17:09:37.292Z,0
2018-03-08T17:09:39.927Z,0
2018-03-08T17:09:42.942Z,0
2018-03-08T17:09:45.672Z,0
2018-03-08T17:09:47.906Z,0
2018-03-08T17:09:51.021Z,0
2018-03-08T17:09:53.665Z,0
2018-03-08T17:09:56.070Z,0
2018-03-08T17:09:58.997Z,0
2018-03-08T17:10:02.022Z,0
2018-03-08T17:10:04.867Z,0
2018-03-08T17:10:07.514Z,0
2018-03-08T17:10:10.232Z,0
2018-03-08T17:10:12.960Z,0
2018-03-08T17:10:15.891Z,0
2018-03-08T17:10:18.523Z,0
2018-03-08T17:10:20.861Z,0
2018-03-08T17:10:23.806Z,0
2018-03-08T17:10:26.744Z,0
2018-03-08T17:10:48.665Z,0
2018-03-08T17:10:51.942Z,0
2018-03-08T17:10:54.667Z,0
2018-03-08T17:10:57.518Z,0
2018-03-08T17:11:15.231Z,0
2018-03-08T17:11:17.953Z,0
2018-03-08T17:11:20.869Z,0
2018-03-08T17:11:23.337Z,0
2018-03-08T17:11:26.260Z,0
2018-03-08T17:11:29.626Z,0
2018-03-08T17:11:32.354Z,0
2018-03-08T17:11:34.806Z,0
2018-03-08T17:11:37.234Z,0
2018-03-08T17:11:40.457Z,0
2018-03-08T17:11:43.388Z,0
2018-03-08T17:11:46.405Z,0
2018-03-08T17:11:49.036Z,0
2018-03-08T17:11:52.335Z,0
2018-03-08T17:11:55.641Z,0
2018-03-08T17:11:58.528Z,0
2018-03-08T17:12:01.486Z,0
2018-03-08T17:12:04.588Z,0
2018-03-08T17:12:07.806Z,0
2018-03-08T17:12:10.739Z,0
2018-03-08T17:12:13.455Z,0
2018-03-08T17:12:16.037Z,0
2018-03-08T17:12:18.678Z,0
2018-03-08T17:12:21.608Z,0
2018-03-08T17:12:24.328Z,0
2018-03-08T17:12:26.670Z,0
2018-03-08T17:12:29.601Z,0
2018-03-08T17:12:32.540Z,0
2018-03-08T17:12:34.980Z,0
2018-03-08T17:12:37.614Z,0
2018-03-08T17:12:40.547Z,0
2018-03-08T17:12:43.861Z,0
2018-03-08T17:12:47.166Z,0
2018-03-08T17:12:50.382Z,0
2018-03-08T17:12:52.938Z,0
2018-03-08T17:13:09.858Z,0
2018-03-08T17:13:13.077Z,0
2018-03-08T17:13:15.803Z,0
2018-03-08T17:13:18.445Z,0
2018-03-08T17:13:21.605Z,0
2018-03-08T17:13:24.338Z,0
2018-03-08T17:13:27.370Z,0
2018-03-08T17:13:30.490Z,0
2018-03-08T17:13:33.420Z,0
2018-03-08T17:13:36.738Z,0
2018-03-08T17:13:39.284Z,0
2018-03-08T17:13:41.729Z,0
2018-03-08T17:13:44.677Z,0
2018-03-08T17:13:47.082Z,0
2018-03-08T17:13:50.125Z,0
2018-03-08T17:13:53.437Z,5
2018-03-08T17:13:56.122Z,5
2018-03-08T17:13:59.137Z,11
2018-03-08T17:14:02.162Z,22
2018-03-08T17:14:04.531Z,22
2018-03-08T17:14:07.359Z,16
2018-03-08T17:14:10.591Z,16
2018-03-08T17:14:13.903Z,16
2018-03-08T17:14:17.183Z,16
2018-03-08T17:14:20.238Z,28
2018-03-08T17:14:22.709Z,45
2018-03-08T17:14:25.462Z,56
2018-03-08T17:14:27.627Z,56
2018-03-08T17:14:30.264Z,56
2018-03-08T17:14:32.625Z,56
2018-03-08T17:14:35.103Z,56
2018-03-08T17:14:38.148Z,56
2018-03-08T17:14:41.310Z,56
2018-03-08T17:14:44.414Z,56
2018-03-08T17:14:47.312Z,56
2018-03-08T17:14:50.433Z,56
2018-03-08T17:14:53.445Z,56
2018-03-08T17:14:55.875Z,56
2018-03-08T17:14:58.886Z,56
2018-03-08T17:15:02.112Z,56
2018-03-08T17:15:04.655Z,56
2018-03-08T17:15:07.086Z,56
2018-03-08T17:15:09.711Z,50
2018-03-08T17:15:12.735Z,39
2018-03-08T17:15:15.289Z,39
2018-03-08T17:15:18.603Z,39
2018-03-08T17:15:20.947Z,39
2018-03-08T17:15:24.258Z,39
2018-03-08T17:15:26.609Z,39
2018-03-08T17:15:29.631Z,39
2018-03-08T17:15:32.653Z,39
2018-03-08T17:15:35.589Z,45
2018-03-08T17:15:38.611Z,45
2018-03-08T17:15:41.054Z,45
2018-03-08T17:15:44.073Z,39
2018-03-08T17:15:46.748Z,39
2018-03-08T17:15:49.092Z,39
2018-03-08T17:15:51.831Z,39
2018-03-08T17:15:54.661Z,39
2018-03-08T17:15:57.727Z,39
2018-03-08T17:16:01.254Z,39
2018-03-08T17:16:04.178Z,39
2018-03-08T17:16:06.657Z,39
2018-03-08T17:16:09.300Z,39
2018-03-08T17:16:11.701Z,39
2018-03-08T17:16:14.248Z,39
2018-03-08T17:16:16.807Z,39
2018-03-08T17:16:19.645Z,39
2018-03-08T17:16:22.272Z,39
2018-03-08T17:16:25.013Z,73
2018-03-08T17:16:28.028Z,56
2018-03-08T17:16:30.658Z,33
2018-03-08T17:16:33.000Z,28
2018-03-08T17:16:36.142Z,28
2018-03-08T17:16:38.777Z,28
2018-03-08T17:16:41.506Z,28
2018-03-08T17:16:43.957Z,33
2018-03-08T17:16:46.803Z,33
2018-03-08T17:16:49.145Z,33
2018-03-08T17:16:51.874Z,33
2018-03-08T17:16:55.182Z,33
2018-03-08T17:16:57.621Z,33
2018-03-08T17:17:00.576Z,33
2018-03-08T17:17:03.595Z,33
2018-03-08T17:17:06.968Z,33
2018-03-08T17:17:10.058Z,33
2018-03-08T17:17:13.001Z,33
2018-03-08T17:17:16.196Z,33
2018-03-08T17:17:18.539Z,33
2018-03-08T17:17:21.264Z,33
2018-03-08T17:17:24.278Z,33
2018-03-08T17:17:26.895Z,33
2018-03-08T17:17:29.949Z,33
2018-03-08T17:17:32.968Z,39
2018-03-08T17:17:35.817Z,39
2018-03-08T17:17:37.969Z,39
2018-03-08T17:17:40.910Z,39
2018-03-08T17:17:43.671Z,39
2018-03-08T17:17:46.690Z,39
2018-03-08T17:17:49.047Z,39
2018-03-08T17:17:51.880Z,39
2018-03-08T17:17:54.876Z,39
2018-03-08T17:17:58.249Z,39
2018-03-08T17:18:01.312Z,39
2018-03-08T17:18:04.471Z,39
2018-03-08T17:18:07.753Z,39
2018-03-08T17:18:11.075Z,39
2018-03-08T17:18:13.337Z,39
2018-03-08T17:18:16.058Z,39
2018-03-08T17:18:19.288Z,45
2018-03-08T17:18:22.335Z,45
2018-03-08T17:18:25.311Z,45
2018-03-08T17:18:27.669Z,45
2018-03-08T17:18:30.481Z,50
2018-03-08T17:18:33.911Z,50
2018-03-08T17:18:37.294Z,50
2018-03-08T17:18:40.009Z,56
2018-03-08T17:18:43.429Z,56
2018-03-08T17:18:46.825Z,56
2018-03-08T17:18:50.187Z,67
2018-03-08T17:18:52.845Z,101
2018-03-08T17:18:55.775Z,135
2018-03-08T17:18:58.792Z,123
2018-03-08T17:19:02.101Z,95
2018-03-08T17:19:04.862Z,67
2018-03-08T17:19:07.748Z,50
2018-03-08T17:19:10.480Z,50
2018-03-08T17:19:13.025Z,45
2018-03-08T17:19:16.252Z,45
2018-03-08T17:19:19.273Z,45
2018-03-08T17:19:21.903Z,45
2018-03-08T17:19:24.257Z,45
2018-03-08T17:19:26.848Z,45
2018-03-08T17:19:29.968Z,45
2018-03-08T17:19:32.697Z,45
2018-03-08T17:19:35.147Z,50
2018-03-08T17:19:38.456Z,50
2018-03-08T17:19:41.759Z,50
2018-03-08T17:19:44.808Z,50
2018-03-08T17:19:47.356Z,50
2018-03-08T17:19:50.397Z,61
2018-03-08T17:19:53.339Z,78
2018-03-08T17:19:56.346Z,112
2018-03-08T17:19:58.775Z,163
2018-03-08T17:20:01.796Z,196
2018-03-08T17:20:04.641Z,185
2018-03-08T17:20:07.071Z,135
2018-03-08T17:20:09.818Z,90
2018-03-08T17:20:12.753Z,50
2018-03-08T17:20:15.882Z,45
2018-03-08T17:20:18.899Z,45
2018-03-08T17:20:21.449Z,39
2018-03-08T17:20:24.188Z,39
2018-03-08T17:20:27.039Z,33
2018-03-08T17:20:30.053Z,33
2018-03-08T17:20:32.819Z,33
2018-03-08T17:20:35.374Z,33
2018-03-08T17:20:38.009Z,33
2018-03-08T17:20:40.152Z,33
2018-03-08T17:20:43.561Z,33
2018-03-08T17:20:46.500Z,33
2018-03-08T17:20:49.430Z,33
2018-03-08T17:20:52.059Z,39
2018-03-08T17:20:54.893Z,39
2018-03-08T17:20:58.223Z,39
2018-03-08T17:21:01.078Z,39
2018-03-08T17:21:03.715Z,39
2018-03-08T17:21:06.840Z,39
2018-03-08T17:21:09.304Z,39
2018-03-08T17:21:12.038Z,39
2018-03-08T17:21:14.704Z,45
2018-03-08T17:21:17.332Z,45
2018-03-08T17:21:20.060Z,45
2018-03-08T17:21:22.780Z,45
2018-03-08T17:21:25.715Z,45
2018-03-08T17:21:29.021Z,45
2018-03-08T17:21:31.666Z,45
2018-03-08T17:21:34.211Z,45
2018-03-08T17:21:37.083Z,50
2018-03-08T17:21:40.021Z,50
2018-03-08T17:21:42.951Z,50
2018-03-08T17:21:45.582Z,50
2018-03-08T17:21:48.131Z,56
2018-03-08T17:21:50.729Z,61
2018-03-08T17:21:53.761Z,67
2018-03-08T17:21:56.984Z,67
2018-03-08T17:22:00.091Z,67
2018-03-08T17:22:03.112Z,67
2018-03-08T17:22:06.340Z,67
2018-03-08T17:22:09.276Z,61
2018-03-08T17:22:11.994Z,50
2018-03-08T17:22:15.498Z,39
2018-03-08T17:22:18.412Z,33
2018-03-08T17:22:21.349Z,33
2018-03-08T17:22:24.342Z,33
2018-03-08T17:22:27.357Z,33
2018-03-08T17:22:30.014Z,33
2018-03-08T17:22:33.441Z,28
2018-03-08T17:22:36.301Z,28
2018-03-08T17:22:39.270Z,28
2018-03-08T17:22:42.411Z,28
2018-03-08T17:22:45.053Z,28
2018-03-08T17:22:48.056Z,28
2018-03-08T17:22:50.781Z,28
2018-03-08T17:22:53.785Z,28
2018-03-08T17:22:56.889Z,28
2018-03-08T17:22:59.982Z,28
2018-03-08T17:23:02.842Z,28
2018-03-08T17:23:06.153Z,28
2018-03-08T17:23:09.395Z,28
2018-03-08T17:23:11.960Z,28
2018-03-08T17:23:14.684Z,28
2018-03-08T17:23:17.423Z,28
2018-03-08T17:23:20.266Z,28
2018-03-08T17:23:22.823Z,28
2018-03-08T17:23:26.177Z,28
2018-03-08T17:23:29.108Z,28
2018-03-08T17:23:32.044Z,28
2018-03-08T17:23:34.986Z,28
2018-03-08T17:23:37.819Z,28
2018-03-08T17:23:40.683Z,39
2018-03-08T17:23:43.027Z,84
2018-03-08T17:23:46.332Z,33
2018-03-08T17:23:49.065Z,22
2018-03-08T17:23:51.817Z,16
2018-03-08T17:23:54.534Z,5
2018-03-08T17:23:57.250Z,5
